sensor_id;sensor_type;location;lat;lon;timestamp;P1;durP1;ratioP1;P2;durP2;ratioP2
16199;SDS011;8207;52.494;4.654;2022-08-11T00:02:21;6.85;;;4.70;;
16199;SDS011;8207;52.494;4.654;2022-08-11T00:05:00;6.60;;;5.50;;
16199;SDS011;8207;52.494;4.654;2022-08-11T00:07:31;7.32;;;4.95;;
16199;SDS011;8207;52.494;4.654;2022-08-11T00:09:58;6.30;;;5.70;;
16199;SDS011;8207;52.494;4.654;2022-08-11T00:12:26;7.30;;;5.47;;
16199;SDS011;8207;52.494;4.654;2022-08-11T00:14:54;6.18;;;5.57;;
16199;SDS011;8207;52.494;4.654;2022-08-11T00:17:26;6.30;;;5.43;;
16199;SDS011;8207;52.494;4.654;2022-08-11T00:20:01;5.95;;;5.32;;
16199;SDS011;8207;52.494;4.654;2022-08-11T00:22:31;7.78;;;5.97;;
16199;SDS011;8207;52.494;4.654;2022-08-11T00:24:59;5.47;;;4.90;;
16199;SDS011;8207;52.494;4.654;2022-08-11T00:27:34;7.22;;;5.72;;
16199;SDS011;8207;52.494;4.654;2022-08-11T00:30:02;6.88;;;5.80;;
16199;SDS011;8207;52.494;4.654;2022-08-11T00:32:30;6.75;;;6.00;;
16199;SDS011;8207;52.494;4.654;2022-08-11T00:34:59;6.47;;;5.78;;
16199;SDS011;8207;52.494;4.654;2022-08-11T00:37:28;8.82;;;5.45;;
16199;SDS011;8207;52.494;4.654;2022-08-11T00:39:56;8.80;;;6.25;;
16199;SDS011;8207;52.494;4.654;2022-08-11T00:42:26;5.40;;;5.00;;
16199;SDS011;8207;52.494;4.654;2022-08-11T00:45:08;5.18;;;4.65;;
16199;SDS011;8207;52.494;4.654;2022-08-11T00:47:42;5.20;;;4.38;;
16199;SDS011;8207;52.494;4.654;2022-08-11T00:50:23;6.50;;;5.45;;
16199;SDS011;8207;52.494;4.654;2022-08-11T00:53:13;5.65;;;5.10;;
16199;SDS011;8207;52.494;4.654;2022-08-11T01:02:14;7.32;;;6.05;;
16199;SDS011;8207;52.494;4.654;2022-08-11T01:11:19;5.57;;;5.03;;
16199;SDS011;8207;52.494;4.654;2022-08-11T01:20:31;5.63;;;5.13;;
16199;SDS011;8207;52.494;4.654;2022-08-11T01:33:07;6.28;;;5.68;;
16199;SDS011;8207;52.494;4.654;2022-08-11T01:36:29;7.05;;;6.40;;
16199;SDS011;8207;52.494;4.654;2022-08-11T01:39:26;5.90;;;5.38;;
16199;SDS011;8207;52.494;4.654;2022-08-11T01:45:54;6.25;;;5.50;;
16199;SDS011;8207;52.494;4.654;2022-08-11T01:48:28;6.50;;;5.80;;
16199;SDS011;8207;52.494;4.654;2022-08-11T01:51:09;6.97;;;5.97;;
16199;SDS011;8207;52.494;4.654;2022-08-11T01:53:46;6.40;;;5.65;;
16199;SDS011;8207;52.494;4.654;2022-08-11T01:56:26;5.95;;;5.45;;
16199;SDS011;8207;52.494;4.654;2022-08-11T01:59:00;7.63;;;6.43;;
16199;SDS011;8207;52.494;4.654;2022-08-11T02:01:40;6.82;;;6.22;;
16199;SDS011;8207;52.494;4.654;2022-08-11T02:04:23;7.47;;;6.78;;
16199;SDS011;8207;52.494;4.654;2022-08-11T02:06:59;6.85;;;6.18;;
16199;SDS011;8207;52.494;4.654;2022-08-11T02:09:41;9.15;;;6.57;;
16199;SDS011;8207;52.494;4.654;2022-08-11T02:12:20;6.50;;;5.90;;
16199;SDS011;8207;52.494;4.654;2022-08-11T02:15:02;7.82;;;6.55;;
16199;SDS011;8207;52.494;4.654;2022-08-11T02:17:40;8.25;;;7.13;;
16199;SDS011;8207;52.494;4.654;2022-08-11T02:20:15;8.45;;;6.75;;
16199;SDS011;8207;52.494;4.654;2022-08-11T02:23:13;6.43;;;5.82;;
16199;SDS011;8207;52.494;4.654;2022-08-11T02:26:09;7.55;;;6.90;;
16199;SDS011;8207;52.494;4.654;2022-08-11T02:28:44;9.32;;;6.82;;
16199;SDS011;8207;52.494;4.654;2022-08-11T02:31:21;8.27;;;7.43;;
16199;SDS011;8207;52.494;4.654;2022-08-11T02:34:12;7.28;;;6.10;;
16199;SDS011;8207;52.494;4.654;2022-08-11T02:36:48;6.78;;;6.07;;
16199;SDS011;8207;52.494;4.654;2022-08-11T02:39:20;8.35;;;6.05;;
16199;SDS011;8207;52.494;4.654;2022-08-11T02:42:04;7.30;;;5.97;;
16199;SDS011;8207;52.494;4.654;2022-08-11T02:44:51;7.22;;;6.53;;
16199;SDS011;8207;52.494;4.654;2022-08-11T02:47:43;6.68;;;6.07;;
16199;SDS011;8207;52.494;4.654;2022-08-11T02:50:32;8.07;;;7.38;;
16199;SDS011;8207;52.494;4.654;2022-08-11T02:53:05;7.15;;;6.45;;
16199;SDS011;8207;52.494;4.654;2022-08-11T02:55:40;6.97;;;6.28;;
16199;SDS011;8207;52.494;4.654;2022-08-11T02:58:19;8.30;;;7.55;;
16199;SDS011;8207;52.494;4.654;2022-08-11T03:00:59;6.40;;;5.88;;
16199;SDS011;8207;52.494;4.654;2022-08-11T03:03:35;7.18;;;6.47;;
16199;SDS011;8207;52.494;4.654;2022-08-11T03:06:18;7.85;;;7.07;;
16199;SDS011;8207;52.494;4.654;2022-08-11T03:08:52;7.85;;;6.85;;
16199;SDS011;8207;52.494;4.654;2022-08-11T03:11:30;7.03;;;6.45;;
16199;SDS011;8207;52.494;4.654;2022-08-11T03:14:31;6.95;;;6.35;;
16199;SDS011;8207;52.494;4.654;2022-08-11T03:17:24;7.30;;;6.60;;
16199;SDS011;8207;52.494;4.654;2022-08-11T03:20:14;6.82;;;6.20;;
16199;SDS011;8207;52.494;4.654;2022-08-11T03:22:56;9.00;;;7.45;;
16199;SDS011;8207;52.494;4.654;2022-08-11T03:25:29;8.13;;;7.32;;
16199;SDS011;8207;52.494;4.654;2022-08-11T03:28:05;7.68;;;5.97;;
16199;SDS011;8207;52.494;4.654;2022-08-11T03:30:47;7.80;;;5.90;;
16199;SDS011;8207;52.494;4.654;2022-08-11T03:33:22;6.55;;;5.88;;
16199;SDS011;8207;52.494;4.654;2022-08-11T03:36:19;7.10;;;6.40;;
16199;SDS011;8207;52.494;4.654;2022-08-11T03:39:23;7.93;;;7.22;;
16199;SDS011;8207;52.494;4.654;2022-08-11T03:42:00;7.07;;;6.45;;
16199;SDS011;8207;52.494;4.654;2022-08-11T03:47:47;7.10;;;6.50;;
16199;SDS011;8207;52.494;4.654;2022-08-11T03:50:33;6.68;;;5.97;;
16199;SDS011;8207;52.494;4.654;2022-08-11T03:53:22;8.32;;;6.80;;
16199;SDS011;8207;52.494;4.654;2022-08-11T03:56:19;6.32;;;5.78;;
16199;SDS011;8207;52.494;4.654;2022-08-11T03:59:12;7.93;;;7.07;;
16199;SDS011;8207;52.494;4.654;2022-08-11T04:05:08;8.25;;;7.53;;
16199;SDS011;8207;52.494;4.654;2022-08-11T04:08:16;8.10;;;7.40;;
16199;SDS011;8207;52.494;4.654;2022-08-11T04:14:11;7.22;;;6.55;;
16199;SDS011;8207;52.494;4.654;2022-08-11T04:20:25;8.18;;;7.13;;
16199;SDS011;8207;52.494;4.654;2022-08-11T04:23:23;8.75;;;7.18;;
16199;SDS011;8207;52.494;4.654;2022-08-11T04:26:20;6.80;;;6.10;;
16199;SDS011;8207;52.494;4.654;2022-08-11T04:29:16;7.00;;;6.30;;
16199;SDS011;8207;52.494;4.654;2022-08-11T04:32:00;6.18;;;5.68;;
16199;SDS011;8207;52.494;4.654;2022-08-11T04:34:47;7.38;;;6.63;;
16199;SDS011;8207;52.494;4.654;2022-08-11T04:37:35;7.75;;;6.95;;
16199;SDS011;8207;52.494;4.654;2022-08-11T04:40:37;9.77;;;8.45;;
16199;SDS011;8207;52.494;4.654;2022-08-11T04:43:30;8.43;;;7.63;;
16199;SDS011;8207;52.494;4.654;2022-08-11T04:46:31;8.02;;;7.00;;
16199;SDS011;8207;52.494;4.654;2022-08-11T04:49:17;8.00;;;6.80;;
16199;SDS011;8207;52.494;4.654;2022-08-11T04:56:05;9.57;;;7.68;;
16199;SDS011;8207;52.494;4.654;2022-08-11T04:59:22;10.90;;;9.65;;
16199;SDS011;8207;52.494;4.654;2022-08-11T05:02:32;9.88;;;8.88;;
16199;SDS011;8207;52.494;4.654;2022-08-11T05:05:20;9.55;;;8.55;;
16199;SDS011;8207;52.494;4.654;2022-08-11T05:08:17;8.98;;;7.80;;
16199;SDS011;8207;52.494;4.654;2022-08-11T05:14:23;10.30;;;8.43;;
16199;SDS011;8207;52.494;4.654;2022-08-11T05:17:13;9.82;;;8.50;;
16199;SDS011;8207;52.494;4.654;2022-08-11T05:20:07;10.77;;;9.23;;
16199;SDS011;8207;52.494;4.654;2022-08-11T05:22:53;11.23;;;9.48;;
16199;SDS011;8207;52.494;4.654;2022-08-11T05:25:37;10.25;;;8.60;;
16199;SDS011;8207;52.494;4.654;2022-08-11T05:28:29;11.80;;;9.00;;
16199;SDS011;8207;52.494;4.654;2022-08-11T05:31:19;9.95;;;8.95;;
16199;SDS011;8207;52.494;4.654;2022-08-11T05:34:09;8.68;;;7.88;;
16199;SDS011;8207;52.494;4.654;2022-08-11T05:36:59;9.88;;;8.70;;
16199;SDS011;8207;52.494;4.654;2022-08-11T05:39:30;9.65;;;8.75;;
16199;SDS011;8207;52.494;4.654;2022-08-11T05:42:22;10.70;;;9.60;;
16199;SDS011;8207;52.494;4.654;2022-08-11T05:45:10;12.35;;;9.00;;
16199;SDS011;8207;52.494;4.654;2022-08-11T05:47:59;9.63;;;8.57;;
16199;SDS011;8207;52.494;4.654;2022-08-11T05:50:49;10.50;;;9.32;;
16199;SDS011;8207;52.494;4.654;2022-08-11T05:53:41;12.00;;;10.52;;
16199;SDS011;8207;52.494;4.654;2022-08-11T05:56:30;11.63;;;10.43;;
16199;SDS011;8207;52.494;4.654;2022-08-11T05:58:59;11.85;;;10.57;;
16199;SDS011;8207;52.494;4.654;2022-08-11T06:01:27;10.27;;;8.82;;
16199;SDS011;8207;52.494;4.654;2022-08-11T06:04:03;11.10;;;9.65;;
16199;SDS011;8207;52.494;4.654;2022-08-11T06:06:52;12.68;;;10.30;;
16199;SDS011;8207;52.494;4.654;2022-08-11T06:09:25;11.13;;;9.90;;
16199;SDS011;8207;52.494;4.654;2022-08-11T06:11:54;9.68;;;8.77;;
16199;SDS011;8207;52.494;4.654;2022-08-11T06:14:24;9.07;;;8.27;;
16199;SDS011;8207;52.494;4.654;2022-08-11T06:16:53;10.32;;;9.15;;
16199;SDS011;8207;52.494;4.654;2022-08-11T06:19:31;9.57;;;8.27;;
16199;SDS011;8207;52.494;4.654;2022-08-11T06:22:00;9.15;;;8.35;;
16199;SDS011;8207;52.494;4.654;2022-08-11T06:24:29;9.02;;;8.13;;
16199;SDS011;8207;52.494;4.654;2022-08-11T06:26:57;9.15;;;8.35;;
16199;SDS011;8207;52.494;4.654;2022-08-11T06:29:25;9.20;;;7.30;;
16199;SDS011;8207;52.494;4.654;2022-08-11T06:31:54;7.95;;;7.20;;
16199;SDS011;8207;52.494;4.654;2022-08-11T06:34:27;6.90;;;6.20;;
16199;SDS011;8207;52.494;4.654;2022-08-11T06:37:06;7.57;;;6.25;;
16199;SDS011;8207;52.494;4.654;2022-08-11T06:39:44;7.50;;;6.55;;
16199;SDS011;8207;52.494;4.654;2022-08-11T06:42:24;7.22;;;5.63;;
16199;SDS011;8207;52.494;4.654;2022-08-11T06:45:03;6.60;;;6.00;;
16199;SDS011;8207;52.494;4.654;2022-08-11T06:47:35;5.50;;;5.00;;
16199;SDS011;8207;52.494;4.654;2022-08-11T06:50:08;6.40;;;5.80;;
16199;SDS011;8207;52.494;4.654;2022-08-11T06:52:52;7.60;;;4.93;;
16199;SDS011;8207;52.494;4.654;2022-08-11T06:55:21;6.68;;;5.75;;
16199;SDS011;8207;52.494;4.654;2022-08-11T06:58:04;8.57;;;5.60;;
16199;SDS011;8207;52.494;4.654;2022-08-11T07:00:49;7.05;;;5.57;;
16199;SDS011;8207;52.494;4.654;2022-08-11T07:03:21;7.82;;;5.25;;
16199;SDS011;8207;52.494;4.654;2022-08-11T07:05:54;5.65;;;5.15;;
16199;SDS011;8207;52.494;4.654;2022-08-11T07:08:41;5.50;;;4.70;;
16199;SDS011;8207;52.494;4.654;2022-08-11T07:11:53;6.85;;;5.75;;
16199;SDS011;8207;52.494;4.654;2022-08-11T07:14:46;6.88;;;5.07;;
16199;SDS011;8207;52.494;4.654;2022-08-11T07:17:34;5.72;;;5.22;;
16199;SDS011;8207;52.494;4.654;2022-08-11T07:20:13;5.82;;;5.18;;
16199;SDS011;8207;52.494;4.654;2022-08-11T07:23:01;7.38;;;5.28;;
16199;SDS011;8207;52.494;4.654;2022-08-11T07:25:46;5.60;;;4.22;;
16199;SDS011;8207;52.494;4.654;2022-08-11T07:28:36;7.50;;;4.85;;
16199;SDS011;8207;52.494;4.654;2022-08-11T07:31:24;7.13;;;4.57;;
16199;SDS011;8207;52.494;4.654;2022-08-11T07:33:57;4.65;;;4.20;;
16199;SDS011;8207;52.494;4.654;2022-08-11T07:36:30;6.15;;;4.40;;
16199;SDS011;8207;52.494;4.654;2022-08-11T07:39:00;4.88;;;4.28;;
16199;SDS011;8207;52.494;4.654;2022-08-11T07:41:28;5.05;;;3.58;;
16199;SDS011;8207;52.494;4.654;2022-08-11T07:43:59;5.55;;;3.90;;
16199;SDS011;8207;52.494;4.654;2022-08-11T07:46:34;4.82;;;4.10;;
16199;SDS011;8207;52.494;4.654;2022-08-11T07:49:21;3.53;;;3.22;;
16199;SDS011;8207;52.494;4.654;2022-08-11T07:52:06;2.90;;;2.70;;
16199;SDS011;8207;52.494;4.654;2022-08-11T07:54:52;3.97;;;3.13;;
16199;SDS011;8207;52.494;4.654;2022-08-11T07:57:20;4.53;;;2.92;;
16199;SDS011;8207;52.494;4.654;2022-08-11T08:00:05;4.10;;;3.08;;
16199;SDS011;8207;52.494;4.654;2022-08-11T08:02:51;2.67;;;2.25;;
16199;SDS011;8207;52.494;4.654;2022-08-11T08:05:36;3.90;;;2.45;;
16199;SDS011;8207;52.494;4.654;2022-08-11T08:08:21;3.10;;;2.30;;
16199;SDS011;8207;52.494;4.654;2022-08-11T08:11:07;4.65;;;2.85;;
16199;SDS011;8207;52.494;4.654;2022-08-11T08:13:52;2.97;;;2.50;;
16199;SDS011;8207;52.494;4.654;2022-08-11T08:16:37;2.95;;;2.47;;
16199;SDS011;8207;52.494;4.654;2022-08-11T08:19:22;2.65;;;1.98;;
16199;SDS011;8207;52.494;4.654;2022-08-11T08:21:49;2.50;;;2.03;;
16199;SDS011;8207;52.494;4.654;2022-08-11T08:24:17;3.45;;;2.25;;
16199;SDS011;8207;52.494;4.654;2022-08-11T08:26:47;2.55;;;1.95;;
16199;SDS011;8207;52.494;4.654;2022-08-11T08:29:24;2.70;;;2.22;;
16199;SDS011;8207;52.494;4.654;2022-08-11T08:32:11;2.78;;;2.15;;
16199;SDS011;8207;52.494;4.654;2022-08-11T08:34:40;3.80;;;2.17;;
16199;SDS011;8207;52.494;4.654;2022-08-11T08:37:07;4.15;;;1.65;;
16199;SDS011;8207;52.494;4.654;2022-08-11T08:39:34;1.95;;;1.52;;
16199;SDS011;8207;52.494;4.654;2022-08-11T08:42:05;3.78;;;1.88;;
16199;SDS011;8207;52.494;4.654;2022-08-11T08:44:35;5.32;;;1.90;;
16199;SDS011;8207;52.494;4.654;2022-08-11T08:47:06;2.67;;;1.65;;
16199;SDS011;8207;52.494;4.654;2022-08-11T08:49:38;2.38;;;1.70;;
16199;SDS011;8207;52.494;4.654;2022-08-11T08:52:13;3.53;;;1.70;;
16199;SDS011;8207;52.494;4.654;2022-08-11T08:54:44;1.88;;;1.40;;
16199;SDS011;8207;52.494;4.654;2022-08-11T08:57:14;3.22;;;1.60;;
16199;SDS011;8207;52.494;4.654;2022-08-11T08:59:44;3.05;;;1.42;;
16199;SDS011;8207;52.494;4.654;2022-08-11T09:02:14;4.53;;;1.58;;
16199;SDS011;8207;52.494;4.654;2022-08-11T09:04:43;3.78;;;1.63;;
16199;SDS011;8207;52.494;4.654;2022-08-11T09:07:12;6.57;;;1.90;;
16199;SDS011;8207;52.494;4.654;2022-08-11T09:09:41;3.47;;;2.08;;
16199;SDS011;8207;52.494;4.654;2022-08-11T09:12:09;1.98;;;1.55;;
16199;SDS011;8207;52.494;4.654;2022-08-11T09:14:39;2.35;;;1.45;;
16199;SDS011;8207;52.494;4.654;2022-08-11T09:17:32;2.38;;;1.40;;
16199;SDS011;8207;52.494;4.654;2022-08-11T09:20:03;4.63;;;1.38;;
16199;SDS011;8207;52.494;4.654;2022-08-11T09:22:32;2.67;;;1.52;;
16199;SDS011;8207;52.494;4.654;2022-08-11T09:25:19;3.15;;;1.40;;
16199;SDS011;8207;52.494;4.654;2022-08-11T09:28:04;3.35;;;1.75;;
16199;SDS011;8207;52.494;4.654;2022-08-11T09:30:36;2.05;;;1.45;;
16199;SDS011;8207;52.494;4.654;2022-08-11T09:33:07;5.28;;;1.70;;
16199;SDS011;8207;52.494;4.654;2022-08-11T09:35:37;1.70;;;1.35;;
16199;SDS011;8207;52.494;4.654;2022-08-11T09:38:09;1.20;;;1.10;;
16199;SDS011;8207;52.494;4.654;2022-08-11T09:40:55;3.50;;;1.42;;
16199;SDS011;8207;52.494;4.654;2022-08-11T09:43:24;3.78;;;1.40;;
16199;SDS011;8207;52.494;4.654;2022-08-11T09:46:12;2.28;;;1.25;;
16199;SDS011;8207;52.494;4.654;2022-08-11T09:48:41;1.70;;;1.45;;
16199;SDS011;8207;52.494;4.654;2022-08-11T09:51:09;4.90;;;1.63;;
16199;SDS011;8207;52.494;4.654;2022-08-11T09:53:38;2.38;;;1.50;;
16199;SDS011;8207;52.494;4.654;2022-08-11T09:56:08;1.45;;;1.10;;
16199;SDS011;8207;52.494;4.654;2022-08-11T09:58:55;1.65;;;1.27;;
16199;SDS011;8207;52.494;4.654;2022-08-11T10:01:27;2.47;;;1.83;;
16199;SDS011;8207;52.494;4.654;2022-08-11T10:03:58;3.42;;;1.23;;
16199;SDS011;8207;52.494;4.654;2022-08-11T10:06:28;2.83;;;1.15;;
16199;SDS011;8207;52.494;4.654;2022-08-11T10:09:15;2.30;;;1.40;;
16199;SDS011;8207;52.494;4.654;2022-08-11T10:14:10;2.33;;;1.30;;
16199;SDS011;8207;52.494;4.654;2022-08-11T10:16:56;2.17;;;1.40;;
16199;SDS011;8207;52.494;4.654;2022-08-11T10:19:23;2.28;;;1.45;;
16199;SDS011;8207;52.494;4.654;2022-08-11T10:21:52;3.63;;;1.55;;
16199;SDS011;8207;52.494;4.654;2022-08-11T10:24:40;4.63;;;1.20;;
16199;SDS011;8207;52.494;4.654;2022-08-11T10:27:27;1.75;;;1.40;;
16199;SDS011;8207;52.494;4.654;2022-08-11T10:29:55;4.80;;;1.30;;
16199;SDS011;8207;52.494;4.654;2022-08-11T10:32:41;2.70;;;1.48;;
16199;SDS011;8207;52.494;4.654;2022-08-11T10:35:26;2.10;;;1.40;;
16199;SDS011;8207;52.494;4.654;2022-08-11T10:37:55;4.43;;;1.38;;
16199;SDS011;8207;52.494;4.654;2022-08-11T10:40:23;2.28;;;1.35;;
16199;SDS011;8207;52.494;4.654;2022-08-11T10:42:51;1.48;;;1.30;;
16199;SDS011;8207;52.494;4.654;2022-08-11T10:45:34;3.90;;;1.80;;
16199;SDS011;8207;52.494;4.654;2022-08-11T10:48:23;2.03;;;1.40;;
16199;SDS011;8207;52.494;4.654;2022-08-11T10:50:51;2.38;;;1.50;;
16199;SDS011;8207;52.494;4.654;2022-08-11T10:53:39;4.70;;;1.90;;
16199;SDS011;8207;52.494;4.654;2022-08-11T10:56:25;3.10;;;1.42;;
16199;SDS011;8207;52.494;4.654;2022-08-11T10:59:11;2.97;;;1.67;;
16199;SDS011;8207;52.494;4.654;2022-08-11T11:01:40;3.20;;;1.60;;
16199;SDS011;8207;52.494;4.654;2022-08-11T11:04:10;2.67;;;1.63;;
16199;SDS011;8207;52.494;4.654;2022-08-11T11:06:42;2.78;;;1.85;;
16199;SDS011;8207;52.494;4.654;2022-08-11T11:09:16;3.30;;;1.50;;
16199;SDS011;8207;52.494;4.654;2022-08-11T11:11:47;3.65;;;1.98;;
16199;SDS011;8207;52.494;4.654;2022-08-11T11:14:34;3.25;;;1.95;;
16199;SDS011;8207;52.494;4.654;2022-08-11T11:17:22;3.53;;;1.70;;
16199;SDS011;8207;52.494;4.654;2022-08-11T11:20:13;3.42;;;1.95;;
16199;SDS011;8207;52.494;4.654;2022-08-11T11:22:44;3.70;;;1.65;;
16199;SDS011;8207;52.494;4.654;2022-08-11T11:25:20;3.17;;;1.70;;
16199;SDS011;8207;52.494;4.654;2022-08-11T11:28:11;2.15;;;1.60;;
16199;SDS011;8207;52.494;4.654;2022-08-11T11:30:54;4.75;;;1.90;;
16199;SDS011;8207;52.494;4.654;2022-08-11T11:33:32;4.13;;;1.77;;
16199;SDS011;8207;52.494;4.654;2022-08-11T11:36:14;2.70;;;1.90;;
16199;SDS011;8207;52.494;4.654;2022-08-11T11:38:50;2.33;;;1.50;;
16199;SDS011;8207;52.494;4.654;2022-08-11T11:41:20;3.72;;;1.70;;
16199;SDS011;8207;52.494;4.654;2022-08-11T11:43:52;3.45;;;1.63;;
16199;SDS011;8207;52.494;4.654;2022-08-11T11:46:20;3.60;;;1.70;;
16199;SDS011;8207;52.494;4.654;2022-08-11T11:48:49;2.38;;;1.52;;
16199;SDS011;8207;52.494;4.654;2022-08-11T11:51:19;2.05;;;1.67;;
16199;SDS011;8207;52.494;4.654;2022-08-11T11:53:47;4.45;;;1.83;;
16199;SDS011;8207;52.494;4.654;2022-08-11T11:56:15;3.47;;;1.70;;
16199;SDS011;8207;52.494;4.654;2022-08-11T11:58:42;6.07;;;1.92;;
16199;SDS011;8207;52.494;4.654;2022-08-11T12:01:26;4.30;;;1.88;;
16199;SDS011;8207;52.494;4.654;2022-08-11T12:03:54;4.90;;;1.70;;
16199;SDS011;8207;52.494;4.654;2022-08-11T12:06:25;6.47;;;1.80;;
16199;SDS011;8207;52.494;4.654;2022-08-11T12:08:53;2.35;;;1.70;;
16199;SDS011;8207;52.494;4.654;2022-08-11T12:11:23;5.00;;;1.83;;
16199;SDS011;8207;52.494;4.654;2022-08-11T12:14:09;3.53;;;1.52;;
16199;SDS011;8207;52.494;4.654;2022-08-11T12:16:37;3.55;;;1.83;;
16199;SDS011;8207;52.494;4.654;2022-08-11T12:19:07;3.22;;;1.80;;
16199;SDS011;8207;52.494;4.654;2022-08-11T12:21:39;2.08;;;1.38;;
16199;SDS011;8207;52.494;4.654;2022-08-11T12:24:28;3.45;;;1.73;;
16199;SDS011;8207;52.494;4.654;2022-08-11T12:27:23;5.40;;;1.73;;
16199;SDS011;8207;52.494;4.654;2022-08-11T12:29:55;3.78;;;1.83;;
16199;SDS011;8207;52.494;4.654;2022-08-11T12:32:24;2.17;;;1.50;;
16199;SDS011;8207;52.494;4.654;2022-08-11T12:34:54;4.00;;;1.90;;
16199;SDS011;8207;52.494;4.654;2022-08-11T12:37:24;3.22;;;1.73;;
16199;SDS011;8207;52.494;4.654;2022-08-11T12:39:57;5.40;;;1.73;;
16199;SDS011;8207;52.494;4.654;2022-08-11T12:42:43;3.83;;;2.08;;
16199;SDS011;8207;52.494;4.654;2022-08-11T12:45:29;3.38;;;1.40;;
16199;SDS011;8207;52.494;4.654;2022-08-11T12:48:00;1.90;;;1.42;;
16199;SDS011;8207;52.494;4.654;2022-08-11T12:50:50;5.05;;;1.55;;
16199;SDS011;8207;52.494;4.654;2022-08-11T12:53:41;4.13;;;1.48;;
16199;SDS011;8207;52.494;4.654;2022-08-11T12:56:14;2.65;;;1.52;;
16199;SDS011;8207;52.494;4.654;2022-08-11T12:58:59;2.33;;;1.80;;
16199;SDS011;8207;52.494;4.654;2022-08-11T13:01:45;2.20;;;1.60;;
16199;SDS011;8207;52.494;4.654;2022-08-11T13:04:29;5.13;;;1.52;;
16199;SDS011;8207;52.494;4.654;2022-08-11T13:07:13;3.05;;;1.38;;
16199;SDS011;8207;52.494;4.654;2022-08-11T13:09:44;4.05;;;1.60;;
16199;SDS011;8207;52.494;4.654;2022-08-11T13:12:11;3.72;;;1.40;;
16199;SDS011;8207;52.494;4.654;2022-08-11T13:14:56;1.50;;;1.38;;
16199;SDS011;8207;52.494;4.654;2022-08-11T13:17:25;2.70;;;1.45;;
16199;SDS011;8207;52.494;4.654;2022-08-11T13:19:53;2.70;;;1.58;;
16199;SDS011;8207;52.494;4.654;2022-08-11T13:22:21;4.68;;;1.60;;
16199;SDS011;8207;52.494;4.654;2022-08-11T13:24:50;3.40;;;1.60;;
16199;SDS011;8207;52.494;4.654;2022-08-11T13:27:19;3.20;;;1.95;;
16199;SDS011;8207;52.494;4.654;2022-08-11T13:29:47;4.95;;;1.55;;
16199;SDS011;8207;52.494;4.654;2022-08-11T13:32:18;2.55;;;1.50;;
16199;SDS011;8207;52.494;4.654;2022-08-11T13:34:50;1.98;;;1.40;;
16199;SDS011;8207;52.494;4.654;2022-08-11T13:37:17;3.92;;;1.80;;
16199;SDS011;8207;52.494;4.654;2022-08-11T13:39:46;1.83;;;1.45;;
16199;SDS011;8207;52.494;4.654;2022-08-11T13:42:15;2.63;;;1.88;;
16199;SDS011;8207;52.494;4.654;2022-08-11T13:44:45;4.90;;;1.77;;
16199;SDS011;8207;52.494;4.654;2022-08-11T13:47:13;2.30;;;1.63;;
16199;SDS011;8207;52.494;4.654;2022-08-11T13:49:41;2.38;;;1.50;;
16199;SDS011;8207;52.494;4.654;2022-08-11T13:52:12;1.85;;;1.50;;
16199;SDS011;8207;52.494;4.654;2022-08-11T13:54:40;2.88;;;1.48;;
16199;SDS011;8207;52.494;4.654;2022-08-11T13:57:08;2.38;;;1.55;;
16199;SDS011;8207;52.494;4.654;2022-08-11T13:59:40;2.30;;;1.67;;
16199;SDS011;8207;52.494;4.654;2022-08-11T14:02:07;2.33;;;1.55;;
16199;SDS011;8207;52.494;4.654;2022-08-11T14:04:40;3.47;;;1.60;;
16199;SDS011;8207;52.494;4.654;2022-08-11T14:07:10;3.85;;;1.65;;
16199;SDS011;8207;52.494;4.654;2022-08-11T14:09:39;4.60;;;1.80;;
16199;SDS011;8207;52.494;4.654;2022-08-11T14:12:12;2.90;;;1.40;;
16199;SDS011;8207;52.494;4.654;2022-08-11T14:15:04;4.15;;;1.63;;
16199;SDS011;8207;52.494;4.654;2022-08-11T14:17:35;2.40;;;1.70;;
16199;SDS011;8207;52.494;4.654;2022-08-11T14:20:06;3.63;;;1.80;;
16199;SDS011;8207;52.494;4.654;2022-08-11T14:22:36;3.30;;;1.83;;
16199;SDS011;8207;52.494;4.654;2022-08-11T14:25:05;4.68;;;1.67;;
16199;SDS011;8207;52.494;4.654;2022-08-11T14:27:33;2.15;;;1.52;;
16199;SDS011;8207;52.494;4.654;2022-08-11T14:30:00;2.03;;;1.80;;
16199;SDS011;8207;52.494;4.654;2022-08-11T14:32:59;2.28;;;1.65;;
16199;SDS011;8207;52.494;4.654;2022-08-11T14:35:27;5.03;;;1.83;;
16199;SDS011;8207;52.494;4.654;2022-08-11T14:37:54;2.03;;;1.50;;
16199;SDS011;8207;52.494;4.654;2022-08-11T14:40:23;4.55;;;1.85;;
16199;SDS011;8207;52.494;4.654;2022-08-11T14:43:09;3.40;;;1.60;;
16199;SDS011;8207;52.494;4.654;2022-08-11T14:45:54;1.75;;;1.50;;
16199;SDS011;8207;52.494;4.654;2022-08-11T14:48:52;3.00;;;1.63;;
16199;SDS011;8207;52.494;4.654;2022-08-11T14:51:20;2.83;;;1.65;;
16199;SDS011;8207;52.494;4.654;2022-08-11T14:53:47;2.58;;;1.60;;
16199;SDS011;8207;52.494;4.654;2022-08-11T14:56:35;2.92;;;1.60;;
16199;SDS011;8207;52.494;4.654;2022-08-11T14:59:01;2.22;;;1.50;;
16199;SDS011;8207;52.494;4.654;2022-08-11T15:01:28;4.68;;;1.67;;
16199;SDS011;8207;52.494;4.654;2022-08-11T15:04:20;3.97;;;1.80;;
16199;SDS011;8207;52.494;4.654;2022-08-11T15:06:48;3.47;;;1.48;;
16199;SDS011;8207;52.494;4.654;2022-08-11T15:09:16;3.03;;;1.60;;
16199;SDS011;8207;52.494;4.654;2022-08-11T15:11:43;2.08;;;1.50;;
16199;SDS011;8207;52.494;4.654;2022-08-11T15:14:28;3.40;;;1.52;;
16199;SDS011;8207;52.494;4.654;2022-08-11T15:17:13;2.65;;;1.52;;
16199;SDS011;8207;52.494;4.654;2022-08-11T15:19:46;1.92;;;1.25;;
16199;SDS011;8207;52.494;4.654;2022-08-11T15:22:31;1.88;;;1.48;;
16199;SDS011;8207;52.494;4.654;2022-08-11T15:25:16;3.67;;;1.77;;
16199;SDS011;8207;52.494;4.654;2022-08-11T15:27:45;3.33;;;1.40;;
16199;SDS011;8207;52.494;4.654;2022-08-11T15:30:32;2.10;;;1.48;;
16199;SDS011;8207;52.494;4.654;2022-08-11T15:33:18;2.67;;;1.33;;
16199;SDS011;8207;52.494;4.654;2022-08-11T15:36:06;2.83;;;1.70;;
16199;SDS011;8207;52.494;4.654;2022-08-11T15:38:53;3.95;;;1.88;;
16199;SDS011;8207;52.494;4.654;2022-08-11T15:41:25;2.45;;;1.70;;
16199;SDS011;8207;52.494;4.654;2022-08-11T15:44:12;1.50;;;1.40;;
16199;SDS011;8207;52.494;4.654;2022-08-11T15:46:59;4.50;;;1.33;;
16199;SDS011;8207;52.494;4.654;2022-08-11T15:49:30;2.70;;;1.73;;
16199;SDS011;8207;52.494;4.654;2022-08-11T15:52:01;3.03;;;2.22;;
16199;SDS011;8207;52.494;4.654;2022-08-11T15:54:31;3.60;;;1.50;;
16199;SDS011;8207;52.494;4.654;2022-08-11T15:57:00;5.20;;;1.55;;
16199;SDS011;8207;52.494;4.654;2022-08-11T15:59:30;4.22;;;1.60;;
16199;SDS011;8207;52.494;4.654;2022-08-11T16:02:16;3.83;;;1.88;;
16199;SDS011;8207;52.494;4.654;2022-08-11T16:05:05;2.15;;;1.40;;
16199;SDS011;8207;52.494;4.654;2022-08-11T16:07:38;2.92;;;1.77;;
16199;SDS011;8207;52.494;4.654;2022-08-11T16:10:13;3.55;;;1.80;;
16199;SDS011;8207;52.494;4.654;2022-08-11T16:12:46;2.55;;;1.63;;
16199;SDS011;8207;52.494;4.654;2022-08-11T16:15:50;2.35;;;1.60;;
16199;SDS011;8207;52.494;4.654;2022-08-11T16:18:38;4.20;;;1.55;;
16199;SDS011;8207;52.494;4.654;2022-08-11T16:21:11;2.45;;;1.58;;
16199;SDS011;8207;52.494;4.654;2022-08-11T16:23:44;1.95;;;1.75;;
16199;SDS011;8207;52.494;4.654;2022-08-11T16:26:15;2.30;;;2.00;;
16199;SDS011;8207;52.494;4.654;2022-08-11T16:28:48;5.05;;;2.05;;
16199;SDS011;8207;52.494;4.654;2022-08-11T16:31:19;2.33;;;1.73;;
16199;SDS011;8207;52.494;4.654;2022-08-11T16:33:47;6.55;;;2.00;;
16199;SDS011;8207;52.494;4.654;2022-08-11T16:36:16;1.95;;;1.50;;
16199;SDS011;8207;52.494;4.654;2022-08-11T16:39:04;1.70;;;1.60;;
16199;SDS011;8207;52.494;4.654;2022-08-11T16:41:34;3.22;;;2.10;;
16199;SDS011;8207;52.494;4.654;2022-08-11T16:44:20;3.63;;;2.05;;
16199;SDS011;8207;52.494;4.654;2022-08-11T16:47:08;2.88;;;1.42;;
16199;SDS011;8207;52.494;4.654;2022-08-11T16:49:41;1.75;;;1.35;;
16199;SDS011;8207;52.494;4.654;2022-08-11T16:52:12;3.35;;;1.60;;
16199;SDS011;8207;52.494;4.654;2022-08-11T16:54:42;2.70;;;1.80;;
16199;SDS011;8207;52.494;4.654;2022-08-11T16:57:12;4.00;;;1.63;;
16199;SDS011;8207;52.494;4.654;2022-08-11T17:00:00;2.47;;;1.95;;
16199;SDS011;8207;52.494;4.654;2022-08-11T17:02:31;2.40;;;1.55;;
16199;SDS011;8207;52.494;4.654;2022-08-11T17:05:21;2.83;;;1.63;;